createdAt,value
2023-05-24T16:53:51.351Z,66.73
2023-05-24T16:56:18.044Z,67.47
2023-05-24T16:58:44.726Z,67.19
2023-05-24T17:01:11.687Z,67.57
2023-05-24T17:03:38.598Z,66.97
2023-05-24T17:06:05.496Z,67.27
2023-05-24T17:08:35.334Z,67.18
2023-05-24T17:11:06.472Z,66.78
2023-05-24T17:13:33.483Z,66.56
2023-05-24T17:16:00.594Z,66.69
2023-05-24T17:18:30.309Z,67.18
2023-05-24T17:21:06.996Z,66.93
2023-05-24T17:23:36.717Z,66.79
2023-05-24T17:26:04.413Z,67.06
2023-05-24T17:28:31.338Z,67.04
2023-05-24T17:30:59.729Z,67.24
2023-05-24T17:33:28.834Z,67.63
2023-05-24T17:35:56.745Z,67.74
2023-05-24T17:38:26.828Z,68.03
2023-05-24T17:40:57.092Z,68.78
2023-05-24T17:43:25.134Z,68.91
2023-05-24T17:45:53.858Z,69.43
2023-05-24T17:48:20.502Z,69.76
2023-05-24T17:50:47.149Z,69.95
2023-05-24T17:53:30.433Z,70.01
2023-05-24T17:55:58.345Z,70.47
2023-05-24T17:58:25.782Z,70.60
2023-05-24T18:00:52.979Z,71.28
2023-05-24T18:03:22.038Z,71.69
2023-05-24T18:05:48.704Z,71.60
2023-05-24T18:08:15.549Z,71.67
2023-05-24T18:10:42.419Z,71.50
2023-05-24T18:13:09.560Z,71.68
2023-05-24T18:15:36.746Z,72.12
2023-05-24T18:18:03.683Z,72.47
2023-05-24T18:20:31.244Z,72.56
2023-05-24T18:22:57.996Z,72.88
2023-05-24T18:25:24.722Z,72.61
2023-05-24T18:27:51.772Z,73.31
2023-05-24T18:30:18.606Z,73.48
2023-05-24T18:33:02.731Z,73.58
2023-05-24T18:35:34.879Z,73.76
2023-05-24T18:38:01.713Z,73.83
2023-05-24T18:40:28.471Z,74.06
2023-05-24T18:43:05.529Z,74.65
2023-05-24T18:45:32.182Z,74.47
2023-05-24T18:47:59.017Z,74.57
2023-05-24T18:50:26.565Z,74.76
2023-05-24T18:52:54.304Z,74.55
2023-05-24T18:55:20.927Z,74.48
2023-05-24T18:57:47.919Z,74.27
2023-05-24T19:00:15.581Z,74.58
2023-05-24T19:02:42.440Z,74.22
2023-05-24T19:05:09.390Z,74.82
2023-05-24T19:07:36.935Z,74.53
2023-05-24T19:10:04.175Z,74.64
2023-05-24T19:12:34.898Z,74.65
2023-05-24T19:15:02.955Z,74.93
2023-05-24T19:17:29.694Z,74.97
2023-05-24T19:19:56.449Z,75.08
2023-05-24T19:22:23.102Z,74.97
2023-05-24T19:24:49.707Z,75.47
2023-05-24T19:27:17.191Z,75.51
2023-05-24T19:29:43.823Z,75.99
2023-05-24T19:32:11.591Z,76.28
2023-05-24T19:34:42.504Z,76.27
2023-05-24T19:37:09.693Z,76.37
2023-05-24T19:39:37.350Z,76.42
2023-05-24T19:42:05.028Z,76.30
2023-05-24T19:44:31.636Z,76.65
2023-05-24T19:46:58.265Z,77.08
2023-05-24T19:49:24.904Z,77.60
2023-05-24T19:51:52.436Z,77.78
2023-05-24T19:54:19.110Z,78.00
2023-05-24T19:56:50.883Z,77.97
2023-05-24T19:59:20.222Z,78.18
2023-05-24T20:01:49.457Z,78.55
2023-05-24T20:04:17.076Z,79.01
2023-05-24T20:06:43.837Z,79.00
2023-05-24T20:09:10.665Z,79.26
2023-05-24T20:11:38.014Z,79.85
2023-05-24T20:14:04.657Z,79.80
2023-05-24T20:16:31.569Z,80.27
2023-05-24T20:18:58.378Z,80.45
2023-05-24T20:21:25.104Z,80.08
2023-05-24T20:23:57.689Z,80.60
2023-05-24T20:26:26.120Z,81.19
2023-05-24T20:28:52.951Z,80.96
2023-05-24T20:31:19.899Z,80.76
2023-05-24T20:33:47.075Z,81.65
2023-05-24T20:36:15.215Z,81.60
2023-05-24T20:38:42.097Z,81.61
2023-05-24T20:41:08.884Z,81.70
2023-05-24T20:43:35.592Z,82.10
2023-05-24T20:46:02.324Z,82.43
2023-05-24T20:48:30.829Z,82.62
2023-05-24T20:50:57.666Z,82.32
2023-05-24T20:53:26.282Z,82.25
2023-05-24T20:55:54.857Z,82.49
2023-05-24T20:58:21.729Z,82.85
2023-05-24T21:00:48.706Z,83.26
2023-05-24T21:03:16.453Z,82.69
2023-05-24T21:05:43.407Z,83.30
2023-05-24T21:08:10.509Z,82.59
2023-05-24T21:10:39.164Z,82.56
2023-05-24T21:13:05.948Z,82.58
2023-05-24T21:15:32.630Z,82.99
2023-05-24T21:18:00.122Z,83.15
2023-05-24T21:20:26.991Z,83.16
2023-05-24T21:22:53.712Z,83.73
2023-05-24T21:25:20.595Z,82.89
2023-05-24T21:27:47.839Z,85.11
2023-05-24T21:30:14.705Z,86.79
2023-05-24T21:32:41.374Z,88.08
2023-05-24T21:35:08.391Z,88.36
2023-05-24T21:37:35.030Z,88.79
2023-05-24T21:40:02.482Z,88.55
2023-05-24T21:42:29.154Z,88.33
2023-05-24T21:44:55.806Z,88.96
2023-05-24T21:47:22.528Z,89.04
2023-05-24T21:49:50.957Z,89.23
2023-05-24T21:52:19.623Z,89.50
2023-05-24T21:54:47.204Z,90.08
2023-05-24T21:57:13.856Z,89.88
2023-05-24T21:59:40.533Z,90.03
2023-05-24T22:02:07.221Z,90.25
2023-05-24T22:04:33.947Z,90.19
2023-05-24T22:07:00.724Z,90.33
2023-05-24T22:09:28.248Z,90.19
2023-05-24T22:11:54.848Z,90.42
2023-05-24T22:14:21.459Z,90.75
2023-05-24T22:16:49.069Z,90.91
2023-05-24T22:19:38.909Z,91.28
2023-05-24T22:22:10.510Z,91.17
2023-05-24T22:24:37.384Z,91.28
2023-05-24T22:27:04.752Z,91.41
2023-05-24T22:29:32.244Z,91.41
2023-05-24T22:31:58.973Z,91.37
2023-05-24T22:34:27.657Z,91.50
2023-05-24T22:36:56.863Z,91.74
2023-05-24T22:39:24.138Z,91.35
2023-05-24T22:41:52.112Z,91.69
2023-05-24T22:44:18.878Z,91.56
2023-05-24T22:46:50.122Z,91.86
2023-05-24T22:49:20.330Z,91.90
2023-05-24T22:51:53.492Z,92.24
2023-05-24T22:54:20.416Z,92.50
2023-05-24T22:56:47.980Z,92.63
2023-05-24T22:59:14.724Z,92.57
2023-05-24T23:01:41.543Z,92.63
2023-05-24T23:04:20.761Z,93.30
2023-05-24T23:06:49.050Z,93.23
2023-05-24T23:09:18.403Z,93.35
2023-05-24T23:11:46.210Z,93.37
2023-05-24T23:14:14.398Z,93.16
2023-05-24T23:16:46.145Z,93.15
2023-05-24T23:19:18.718Z,93.12
2023-05-24T23:21:47.105Z,93.01
2023-05-24T23:24:16.036Z,93.02
2023-05-24T23:26:43.609Z,92.97
2023-05-24T23:29:11.370Z,93.09
2023-05-24T23:31:38.269Z,92.85
2023-05-24T23:34:05.725Z,92.51
2023-05-24T23:36:33.304Z,92.90
2023-05-24T23:39:00.192Z,92.91
2023-05-24T23:41:27.432Z,92.92
2023-05-24T23:43:54.217Z,93.20
2023-05-24T23:46:20.949Z,93.16
2023-05-24T23:48:47.734Z,93.28
2023-05-24T23:51:15.460Z,93.07
2023-05-24T23:53:43.024Z,93.09
2023-05-24T23:56:09.719Z,93.21
2023-05-24T23:58:37.847Z,93.31
